Time;durP1;ratioP1;P1;durP2;ratioP2;P2;SDS_P1;SDS_P2;PMS_P1;PMS_P2;Temp;Humidity;BMP_temperature;BMP_pressure;BME280_temperature;BME280_humidity;BME280_pressure;Samples;Min_cycle;Max_cycle;Signal;HPM_P1;HPM_P2
2023/05/22 00:01:45;;;;;;;12.60;10.60;;;17.60;99.90;;;;;;5009822;28;20026;-78
2023/05/22 00:04:20;;;;;;;12.38;10.20;;;17.60;99.90;;;;;;4986442;28;20052;-78
2023/05/22 00:06:46;;;;;;;13.68;8.50;;;17.60;99.90;;;;;;4992127;28;20042;-78
2023/05/22 00:09:12;;;;;;;12.35;9.93;;;17.60;99.90;;;;;;5018187;28;20037;-78
2023/05/22 00:11:38;;;;;;;13.85;11.98;;;17.60;99.90;;;;;;5006204;28;20029;-78
2023/05/22 00:14:04;;;;;;;12.50;10.77;;;17.50;99.90;;;;;;5021885;28;20435;-79
2023/05/22 00:16:30;;;;;;;15.32;13.07;;;17.50;99.90;;;;;;5006296;28;20123;-78
2023/05/22 00:18:56;;;;;;;16.45;14.63;;;17.50;99.90;;;;;;5009043;28;20061;-79
2023/05/22 00:21:23;;;;;;;26.35;19.38;;;17.40;99.90;;;;;;5001848;28;20467;-78
2023/05/22 00:23:49;;;;;;;17.67;15.32;;;17.40;99.90;;;;;;4991504;28;20030;-79
2023/05/22 00:26:15;;;;;;;14.68;12.70;;;17.40;99.90;;;;;;5008388;28;20052;-79
2023/05/22 00:28:41;;;;;;;17.98;13.77;;;17.50;99.90;;;;;;4990795;28;20026;-79
2023/05/22 00:31:07;;;;;;;12.75;11.45;;;17.50;99.90;;;;;;5008391;28;20031;-78
2023/05/22 00:33:33;;;;;;;16.98;13.73;;;17.50;99.90;;;;;;4988746;28;20409;-78
2023/05/22 00:35:59;;;;;;;14.88;12.13;;;17.50;99.90;;;;;;5007860;28;20367;-78
2023/05/22 00:38:31;;;;;;;13.45;11.60;;;17.50;99.90;;;;;;5009150;28;20072;-78
2023/05/22 00:40:58;;;;;;;14.77;12.60;;;17.50;99.90;;;;;;4992898;28;20030;-79
2023/05/22 00:43:25;;;;;;;12.98;11.20;;;17.50;99.90;;;;;;4990986;28;20048;-79
2023/05/22 00:45:52;;;;;;;12.63;11.27;;;17.50;99.90;;;;;;5005626;28;20026;-79
2023/05/22 00:48:19;;;;;;;14.60;12.90;;;17.50;99.90;;;;;;4989988;28;20133;-79
2023/05/22 00:50:45;;;;;;;13.77;11.43;;;17.60;99.90;;;;;;4991587;28;20030;-79
2023/05/22 00:53:12;;;;;;;13.75;11.80;;;17.60;99.90;;;;;;5005871;28;20037;-78
2023/05/22 00:55:38;;;;;;;12.57;11.27;;;17.50;99.90;;;;;;5003671;28;20069;-80
2023/05/22 00:58:06;;;;;;;15.15;11.55;;;17.50;99.90;;;;;;5008265;28;20045;-79
2023/05/22 01:00:36;;;;;;;13.52;10.90;;;17.50;99.90;;;;;;5005914;28;20034;-79
2023/05/22 01:03:06;;;;;;;11.38;10.18;;;17.50;99.90;;;;;;5004893;28;20049;-79
2023/05/22 01:05:33;;;;;;;11.85;10.48;;;17.50;99.90;;;;;;5002909;28;20169;-79
2023/05/22 01:07:59;;;;;;;15.05;11.05;;;17.50;99.90;;;;;;4989911;28;20121;-79
2023/05/22 01:10:26;;;;;;;13.07;11.05;;;17.60;99.90;;;;;;5007555;28;20109;-78
2023/05/22 01:13:17;;;;;;;13.70;10.70;;;17.50;99.90;;;;;;4991254;28;20311;-79
2023/05/22 01:15:51;;;;;;;11.45;10.18;;;17.50;99.90;;;;;;5006681;28;20044;-79
2023/05/22 01:18:28;;;;;;;18.95;15.77;;;17.50;99.90;;;;;;5007364;28;20083;-78
2023/05/22 01:21:09;;;;;;;17.20;13.93;;;17.50;99.90;;;;;;5001869;28;20030;-79
2023/05/22 01:24:12;;;;;;;21.15;17.33;;;17.40;99.90;;;;;;5003747;28;20037;-79
2023/05/22 01:26:47;;;;;;;17.95;13.77;;;17.30;99.90;;;;;;4989728;28;20029;-79
2023/05/22 01:29:40;;;;;;;16.08;13.88;;;17.30;99.90;;;;;;5006601;28;20505;-79
2023/05/22 01:32:13;;;;;;;17.33;13.05;;;17.30;99.90;;;;;;5007597;28;20029;-79
2023/05/22 01:34:42;;;;;;;16.70;11.63;;;17.30;99.90;;;;;;4990738;28;20029;-79
2023/05/22 01:37:09;;;;;;;12.15;10.75;;;17.30;99.90;;;;;;5004959;28;20030;-79
2023/05/22 01:39:36;;;;;;;12.85;10.82;;;17.30;99.90;;;;;;4987501;28;20126;-79
2023/05/22 01:42:02;;;;;;;12.57;11.10;;;17.30;99.90;;;;;;5007790;28;20030;-79
2023/05/22 01:44:27;;;;;;;16.98;12.05;;;17.30;99.90;;;;;;5004227;28;20562;-79
2023/05/22 01:46:55;;;;;;;13.07;11.10;;;17.30;99.90;;;;;;5007342;28;20026;-79
2023/05/22 01:49:21;;;;;;;13.38;11.65;;;17.20;99.90;;;;;;5003624;28;20105;-79
2023/05/22 01:51:59;;;;;;;15.27;11.52;;;17.30;99.90;;;;;;5006882;28;20306;-79
2023/05/22 01:54:41;;;;;;;14.40;11.80;;;17.30;99.90;;;;;;5016224;28;20038;-78
2023/05/22 01:57:29;;;;;;;12.73;10.75;;;17.20;99.90;;;;;;5005321;28;20040;-79
2023/05/22 01:59:58;;;;;;;11.30;10.13;;;17.20;99.90;;;;;;4991214;28;20045;-78
2023/05/22 02:02:26;;;;;;;13.48;11.27;;;17.20;99.90;;;;;;4991431;28;20483;-80
2023/05/22 02:04:57;;;;;;;13.57;12.13;;;17.20;99.90;;;;;;5000247;28;20120;-78
2023/05/22 02:07:24;;;;;;;13.35;11.80;;;17.10;99.90;;;;;;4989192;28;20026;-79
2023/05/22 02:09:52;;;;;;;13.52;10.60;;;17.10;99.90;;;;;;4991142;28;20029;-79
2023/05/22 02:12:19;;;;;;;14.60;11.85;;;17.00;99.90;;;;;;5005771;28;20045;-80
2023/05/22 02:14:46;;;;;;;13.90;10.52;;;17.00;99.90;;;;;;5006210;28;20513;-79
2023/05/22 02:17:12;;;;;;;14.02;10.73;;;17.00;99.90;;;;;;4991142;28;20072;-80
2023/05/22 02:19:38;;;;;;;13.77;11.38;;;17.00;99.90;;;;;;5005851;28;20029;-79
2023/05/22 02:22:04;;;;;;;12.45;11.15;;;17.00;99.90;;;;;;4990057;28;20061;-79
2023/05/22 02:24:31;;;;;;;12.15;10.85;;;17.00;99.90;;;;;;4990129;28;20060;-79
2023/05/22 02:26:57;;;;;;;13.43;11.65;;;17.00;99.90;;;;;;5004598;28;20054;-80
2023/05/22 02:29:23;;;;;;;11.82;10.18;;;16.90;99.90;;;;;;4990439;28;20429;-80
2023/05/22 02:31:52;;;;;;;13.88;11.90;;;16.80;99.90;;;;;;5002447;28;20029;-79
2023/05/22 02:34:17;;;;;;;14.43;12.63;;;16.70;99.90;;;;;;5003017;28;20038;-79
2023/05/22 02:36:43;;;;;;;16.50;13.45;;;16.70;99.90;;;;;;4986751;28;20157;-79
2023/05/22 02:39:09;;;;;;;18.17;14.00;;;16.60;99.90;;;;;;4991344;28;20469;-79
2023/05/22 02:41:34;;;;;;;14.63;12.40;;;16.70;99.90;;;;;;4990674;28;20038;-78
2023/05/22 02:44:00;;;;;;;18.02;13.60;;;16.60;99.90;;;;;;4999861;28;20054;-79
2023/05/22 02:46:26;;;;;;;13.82;12.18;;;16.60;99.90;;;;;;5006062;28;20106;-79
2023/05/22 02:48:52;;;;;;;16.50;13.38;;;16.50;99.90;;;;;;4989430;28;20379;-79
2023/05/22 02:51:18;;;;;;;17.58;13.07;;;16.40;99.90;;;;;;4990514;28;20115;-79
2023/05/22 02:53:43;;;;;;;12.88;10.93;;;16.40;99.90;;;;;;4987758;28;20530;-79
2023/05/22 02:56:10;;;;;;;11.98;10.25;;;16.40;99.90;;;;;;4991043;28;20128;-78
2023/05/22 02:58:38;;;;;;;12.27;10.68;;;16.40;99.90;;;;;;5006609;28;20489;-78
2023/05/22 03:01:07;;;;;;;14.93;12.23;;;16.50;99.90;;;;;;4989061;28;20064;-79
2023/05/22 03:03:33;;;;;;;13.32;11.20;;;16.40;99.90;;;;;;4990313;28;20023;-78
2023/05/22 03:06:00;;;;;;;11.80;10.02;;;16.40;99.90;;;;;;5006644;28;20388;-78
2023/05/22 03:08:27;;;;;;;12.40;10.85;;;16.40;99.90;;;;;;5006477;28;20088;-78
2023/05/22 03:10:54;;;;;;;12.43;10.90;;;16.30;99.90;;;;;;5005915;28;20053;-80
2023/05/22 03:13:20;;;;;;;12.20;10.90;;;16.20;99.90;;;;;;5003891;28;20023;-78
2023/05/22 03:15:46;;;;;;;14.75;12.10;;;16.10;99.90;;;;;;4987686;28;20416;-78
2023/05/22 03:18:13;;;;;;;14.70;12.45;;;16.10;99.90;;;;;;5004370;28;20022;-78
2023/05/22 03:20:40;;;;;;;12.88;11.05;;;16.10;99.90;;;;;;4989250;28;20030;-78
2023/05/22 03:23:06;;;;;;;14.80;12.20;;;16.10;99.90;;;;;;4990496;28;20064;-79
2023/05/22 03:25:32;;;;;;;12.63;9.90;;;16.20;99.90;;;;;;4987926;28;20057;-78
2023/05/22 03:27:57;;;;;;;13.82;11.40;;;16.20;99.90;;;;;;5019923;28;20034;-78
2023/05/22 03:30:25;;;;;;;13.55;11.27;;;16.20;99.90;;;;;;4989810;28;20029;-79
2023/05/22 03:33:06;;;;;;;14.05;11.95;;;16.10;99.90;;;;;;4992482;28;20177;-78
2023/05/22 03:35:32;;;;;;;12.93;11.60;;;16.10;99.90;;;;;;5003588;28;20186;-78
2023/05/22 03:37:57;;;;;;;14.10;11.52;;;16.10;99.90;;;;;;4987589;28;20438;-78
2023/05/22 03:40:23;;;;;;;15.77;12.25;;;16.00;99.90;;;;;;5005664;28;20456;-79
2023/05/22 03:42:49;;;;;;;14.55;12.38;;;16.00;99.90;;;;;;4988964;28;20018;-77
2023/05/22 03:45:16;;;;;;;12.93;11.38;;;15.90;99.90;;;;;;4989765;28;20122;-79
2023/05/22 03:47:41;;;;;;;14.00;10.90;;;15.90;99.90;;;;;;5001683;28;20124;-78
2023/05/22 03:50:09;;;;;;;13.68;11.38;;;16.00;99.90;;;;;;5003919;28;20026;-79
2023/05/22 03:52:34;;;;;;;12.82;11.43;;;16.00;99.90;;;;;;5000749;28;20026;-79
2023/05/22 03:55:00;;;;;;;13.85;11.10;;;15.90;99.90;;;;;;5003256;28;20045;-79
2023/05/22 03:57:26;;;;;;;14.85;11.60;;;15.90;99.90;;;;;;5000413;28;20273;-79
2023/05/22 03:59:52;;;;;;;13.75;11.32;;;15.90;99.90;;;;;;4985040;28;20018;-79
2023/05/22 04:02:18;;;;;;;13.20;10.65;;;15.90;99.90;;;;;;5008630;28;20060;-79
2023/05/22 04:04:45;;;;;;;12.43;10.60;;;15.90;99.90;;;;;;5008413;28;20041;-79
2023/05/22 04:07:13;;;;;;;12.20;10.65;;;16.00;99.90;;;;;;4993045;28;20040;-79
2023/05/22 04:09:40;;;;;;;11.88;10.13;;;15.90;99.90;;;;;;5015010;28;20450;-79
2023/05/22 04:12:06;;;;;;;10.65;9.25;;;15.90;99.90;;;;;;5006941;28;20124;-79
2023/05/22 04:14:32;;;;;;;14.75;12.88;;;15.90;99.90;;;;;;4993063;28;20068;-78
2023/05/22 04:16:58;;;;;;;19.35;16.48;;;15.90;99.90;;;;;;5006906;28;20111;-78
2023/05/22 04:19:26;;;;;;;17.55;15.65;;;15.90;99.90;;;;;;5008163;28;20018;-78
2023/05/22 04:21:53;;;;;;;20.25;16.33;;;15.80;99.90;;;;;;4991252;28;20454;-79
2023/05/22 04:24:21;;;;;;;19.15;15.40;;;15.90;99.90;;;;;;4986823;28;20116;-78
2023/05/22 04:26:48;;;;;;;15.18;12.35;;;15.80;99.90;;;;;;4988695;28;20548;-79
2023/05/22 04:29:15;;;;;;;13.48;11.77;;;15.80;99.90;;;;;;5007550;28;20108;-78
2023/05/22 04:31:41;;;;;;;14.65;11.60;;;15.90;99.90;;;;;;4991429;28;20025;-79
2023/05/22 04:34:13;;;;;;;12.63;10.90;;;15.90;99.90;;;;;;4990714;28;20026;-78
2023/05/22 04:36:38;;;;;;;14.65;11.10;;;15.90;99.90;;;;;;4989348;28;20066;-78
2023/05/22 04:39:04;;;;;;;18.25;14.55;;;16.00;99.90;;;;;;5004360;28;20431;-78
2023/05/22 04:41:31;;;;;;;16.20;12.73;;;16.00;99.90;;;;;;4992468;28;20033;-78
2023/05/22 04:43:57;;;;;;;17.15;13.93;;;16.00;99.90;;;;;;4990957;28;20082;-79
2023/05/22 04:46:23;;;;;;;13.73;11.75;;;16.00;99.90;;;;;;5005798;28;20474;-78
2023/05/22 04:48:49;;;;;;;18.17;13.35;;;16.10;99.90;;;;;;5008946;28;20096;-78
2023/05/22 04:51:15;;;;;;;14.60;12.73;;;16.20;99.90;;;;;;4991288;28;20485;-78
2023/05/22 04:53:41;;;;;;;17.35;15.20;;;16.20;99.90;;;;;;4991610;28;20033;-78
2023/05/22 04:56:07;;;;;;;18.58;14.75;;;16.30;99.90;;;;;;4991415;28;20030;-78
2023/05/22 04:58:33;;;;;;;18.40;15.27;;;16.30;99.90;;;;;;4991111;28;20022;-78
2023/05/22 05:00:58;;;;;;;18.55;16.52;;;16.40;99.90;;;;;;4990550;28;20170;-79
2023/05/22 05:03:25;;;;;;;16.65;14.50;;;16.30;99.90;;;;;;4991609;28;20084;-78
2023/05/22 05:05:51;;;;;;;13.95;11.63;;;16.30;99.90;;;;;;4999840;28;20033;-79
2023/05/22 05:08:17;;;;;;;15.05;13.43;;;16.40;99.90;;;;;;4988387;28;20026;-79
2023/05/22 05:10:42;;;;;;;15.05;12.15;;;16.50;99.90;;;;;;4991640;28;20064;-79
2023/05/22 05:13:08;;;;;;;16.48;14.65;;;16.60;99.90;;;;;;5004288;28;20046;-78
2023/05/22 05:15:37;;;;;;;16.33;12.10;;;16.60;99.90;;;;;;5007526;28;20045;-79
2023/05/22 05:18:02;;;;;;;15.15;13.25;;;16.70;99.90;;;;;;5007635;28;20422;-79
2023/05/22 05:20:29;;;;;;;14.55;11.00;;;16.70;99.90;;;;;;4988475;28;20052;-79
2023/05/22 05:22:55;;;;;;;13.20;11.88;;;16.70;99.90;;;;;;4989621;28;20029;-80
2023/05/22 05:25:21;;;;;;;15.25;12.68;;;16.70;99.90;;;;;;5008300;28;20022;-80
2023/05/22 05:27:47;;;;;;;17.35;13.13;;;16.80;99.90;;;;;;4988811;28;20030;-79
2023/05/22 05:30:14;;;;;;;16.02;12.80;;;16.70;99.90;;;;;;5004952;28;20034;-80
2023/05/22 05:33:06;;;;;;;14.18;11.88;;;16.70;99.90;;;;;;4991875;28;20038;-79
2023/05/22 05:35:36;;;;;;;13.00;11.52;;;16.70;99.90;;;;;;4992017;28;20079;-79
2023/05/22 05:38:06;;;;;;;14.40;11.38;;;16.70;99.90;;;;;;4990965;28;20026;-80
2023/05/22 05:40:33;;;;;;;13.10;11.45;;;16.60;99.90;;;;;;4991194;28;20116;-79
2023/05/22 05:42:59;;;;;;;11.18;9.52;;;16.60;99.90;;;;;;5007554;28;20593;-79
2023/05/22 05:45:25;;;;;;;16.35;13.13;;;16.70;99.90;;;;;;5018315;28;20105;-79
2023/05/22 05:47:51;;;;;;;18.35;14.23;;;16.90;99.90;;;;;;4989587;28;20022;-79
2023/05/22 05:50:17;;;;;;;17.80;15.20;;;17.00;99.90;;;;;;5007809;28;20493;-78
2023/05/22 05:52:43;;;;;;;20.50;16.48;;;17.10;99.90;;;;;;5005747;28;20022;-78
2023/05/22 05:55:13;;;;;;;;;;;17.10;99.90;;;;;;5001371;28;20037;-79
2023/05/22 05:57:39;;;;;;;20.98;17.67;;;17.30;99.90;;;;;;5003853;28;19956;-79
2023/05/22 06:00:10;;;;;;;24.15;20.75;;;17.30;99.90;;;;;;4991988;28;20391;-78
2023/05/22 06:02:42;;;;;;;27.83;21.10;;;17.40;99.90;;;;;;5004783;28;20046;-78
2023/05/22 06:05:37;;;;;;;26.60;20.85;;;17.30;99.90;;;;;;4990015;28;20394;-80
2023/05/22 06:08:18;;;;;;;;;;;17.30;99.90;;;;;;4992606;28;20018;-78
2023/05/22 06:10:46;;;;;;;22.10;16.92;;;17.40;99.90;;;;;;5002894;28;19971;-77
2023/05/22 06:13:15;;;;;;;22.70;17.05;;;17.40;99.90;;;;;;5006420;28;20031;-77
2023/05/22 06:15:40;;;;;;;20.13;15.75;;;17.40;99.90;;;;;;4990633;28;20038;-79
2023/05/22 06:18:06;;;;;;;21.02;17.48;;;17.50;99.90;;;;;;5006050;28;20031;-78
2023/05/22 06:20:32;;;;;;;18.85;16.38;;;17.60;99.90;;;;;;4988494;28;20033;-79
2023/05/22 06:22:58;;;;;;;21.52;17.98;;;17.70;99.90;;;;;;5001397;28;20108;-78
2023/05/22 06:25:24;;;;;;;22.35;18.70;;;17.90;99.90;;;;;;5004265;28;20116;-79
2023/05/22 06:27:51;;;;;;;21.52;17.77;;;17.90;99.90;;;;;;5001476;28;20022;-78
2023/05/22 06:30:17;;;;;;;19.73;17.55;;;17.90;99.90;;;;;;5005029;28;20092;-76
2023/05/22 06:32:44;;;;;;;21.65;18.75;;;17.90;99.90;;;;;;5018625;28;20494;-79
2023/05/22 06:35:13;;;;;;;19.63;17.52;;;18.00;99.90;;;;;;4990091;28;20038;-77
2023/05/22 06:37:41;;;;;;;24.08;18.65;;;18.10;99.90;;;;;;5005754;28;20076;-79
2023/05/22 06:40:08;;;;;;;20.02;16.90;;;18.10;99.90;;;;;;5005345;28;20426;-79
2023/05/22 06:42:53;;;;;;;16.40;14.27;;;18.10;99.90;;;;;;4991960;28;20025;-78
2023/05/22 06:45:31;;;;;;;19.98;17.88;;;18.20;99.90;;;;;;4991700;28;20057;-78
2023/05/22 06:48:18;;;;;;;16.65;14.90;;;18.40;99.90;;;;;;4992429;28;20049;-78
2023/05/22 06:50:56;;;;;;;17.02;15.23;;;18.50;99.90;;;;;;4991471;28;20383;-77
2023/05/22 06:53:24;;;;;;;18.45;16.55;;;18.60;99.90;;;;;;4989022;28;20277;-78
2023/05/22 06:55:50;;;;;;;18.48;16.55;;;18.50;99.90;;;;;;5006634;28;20064;-78
2023/05/22 06:58:24;;;;;;;19.33;17.33;;;18.60;99.90;;;;;;5003568;28;20022;-79
2023/05/22 07:00:50;;;;;;;20.17;18.27;;;18.50;99.90;;;;;;5019193;28;20501;-78
2023/05/22 07:03:21;;;;;;;18.42;16.52;;;18.80;99.90;;;;;;4990600;28;20056;-79
2023/05/22 07:06:06;;;;;;;16.88;14.23;;;19.00;99.90;;;;;;5003281;28;20069;-78
2023/05/22 07:08:33;;;;;;;14.60;13.13;;;19.10;99.90;;;;;;4989247;28;20026;-80
2023/05/22 07:11:00;;;;;;;15.18;13.68;;;19.20;99.90;;;;;;5002764;28;20062;-77
2023/05/22 07:13:27;;;;;;;15.43;13.82;;;19.10;99.90;;;;;;5021708;28;20021;-77
2023/05/22 07:15:53;;;;;;;14.75;13.35;;;19.10;99.90;;;;;;4990896;28;20034;-78
2023/05/22 07:18:19;;;;;;;11.27;10.18;;;19.00;99.90;;;;;;4986278;28;20036;-80
2023/05/22 07:20:45;;;;;;;13.27;11.98;;;19.20;99.90;;;;;;5002236;28;20086;-78
2023/05/22 07:23:14;;;;;;;12.95;11.75;;;19.20;99.90;;;;;;5019877;28;20441;-80
2023/05/22 07:25:42;;;;;;;13.27;11.88;;;19.30;99.90;;;;;;4987296;28;20116;-80
2023/05/22 07:28:08;;;;;;;12.25;11.05;;;19.50;99.90;;;;;;5003745;28;20117;-78
2023/05/22 07:30:38;;;;;;;15.63;14.02;;;19.70;99.90;;;;;;4999765;28;20033;-79
2023/05/22 07:33:04;;;;;;;9.70;8.70;;;19.30;99.90;;;;;;5002424;28;20456;-79
2023/05/22 07:35:30;;;;;;;16.63;14.82;;;19.70;99.90;;;;;;4989667;28;20332;-79
2023/05/22 07:37:56;;;;;;;15.18;12.90;;;19.60;99.90;;;;;;5000314;28;20523;-78
2023/05/22 07:40:22;;;;;;;14.98;13.52;;;19.80;99.90;;;;;;5004968;28;20026;-78
2023/05/22 07:42:48;;;;;;;17.02;15.27;;;19.70;99.90;;;;;;4999347;28;20044;-78
2023/05/22 07:45:14;;;;;;;15.68;14.18;;;19.60;99.90;;;;;;5002647;28;20038;-79
2023/05/22 07:47:40;;;;;;;14.88;13.38;;;19.60;99.90;;;;;;4991301;28;20101;-77
2023/05/22 07:50:06;;;;;;;16.70;15.07;;;19.90;99.90;;;;;;5004209;28;20022;-79
2023/05/22 07:52:35;;;;;;;17.23;15.43;;;20.00;99.90;;;;;;4991595;28;20088;-79
2023/05/22 07:55:01;;;;;;;19.10;17.30;;;19.90;99.90;;;;;;4991544;28;20038;-78
2023/05/22 07:57:28;;;;;;;16.25;14.73;;;19.90;99.90;;;;;;4992424;28;20524;-79
2023/05/22 07:59:55;;;;;;;13.40;12.10;;;20.00;99.90;;;;;;5006622;28;20034;-79
2023/05/22 08:02:21;;;;;;;15.52;14.02;;;20.10;99.90;;;;;;5004869;28;20075;-79
2023/05/22 08:04:49;;;;;;;13.65;12.35;;;20.20;99.90;;;;;;5005079;28;20028;-77
2023/05/22 08:07:14;;;;;;;15.13;13.40;;;20.30;99.90;;;;;;5007404;28;20098;-79
2023/05/22 08:09:44;;;;;;;18.00;16.17;;;20.30;99.90;;;;;;4990714;28;20046;-79
2023/05/22 08:12:10;;;;;;;14.65;13.23;;;20.50;99.90;;;;;;5005151;28;20463;-79
2023/05/22 08:14:36;;;;;;;14.80;13.20;;;20.80;99.90;;;;;;5004038;28;20022;-78
2023/05/22 08:17:02;;;;;;;15.02;13.43;;;20.80;99.90;;;;;;5004212;28;20034;-79
2023/05/22 08:19:27;;;;;;;15.63;14.10;;;20.60;99.90;;;;;;5019557;28;20022;-80
2023/05/22 08:21:56;;;;;;;15.32;13.52;;;20.70;99.90;;;;;;5009507;28;20437;-78
2023/05/22 08:24:27;;;;;;;15.90;14.35;;;21.20;99.90;;;;;;4992216;28;20432;-79
2023/05/22 08:26:57;;;;;;;18.23;16.40;;;21.40;99.90;;;;;;5006801;28;20029;-79
2023/05/22 08:29:22;;;;;;;19.98;17.98;;;21.30;99.90;;;;;;5003430;28;20025;-79
2023/05/22 08:31:48;;;;;;;17.65;15.85;;;21.30;99.90;;;;;;5005834;28;20439;-79
2023/05/22 08:34:14;;;;;;;17.50;15.80;;;21.40;99.90;;;;;;4991636;28;20405;-79
2023/05/22 08:36:39;;;;;;;16.77;15.07;;;21.70;99.90;;;;;;5008103;28;20470;-80
2023/05/22 08:39:06;;;;;;;18.55;16.60;;;21.70;99.90;;;;;;5006942;28;20040;-80
2023/05/22 08:41:32;;;;;;;16.55;14.85;;;21.80;99.90;;;;;;4992541;28;20398;-79
2023/05/22 08:43:57;;;;;;;16.15;14.55;;;21.90;99.90;;;;;;4988101;28;20058;-80
2023/05/22 08:46:27;;;;;;;16.58;14.88;;;22.20;99.90;;;;;;4991150;28;20026;-79
2023/05/22 08:48:57;;;;;;;16.15;14.48;;;22.20;99.90;;;;;;4991922;28;20494;-80
2023/05/22 08:51:27;;;;;;;17.02;15.32;;;22.20;99.90;;;;;;5006269;28;20445;-79
2023/05/22 08:53:55;;;;;;;12.30;11.10;;;22.30;99.90;;;;;;5005173;28;20037;-80
2023/05/22 08:56:21;;;;;;;16.27;14.60;;;22.60;99.90;;;;;;5001883;28;20067;-80
2023/05/22 08:58:48;;;;;;;16.02;14.35;;;22.30;99.90;;;;;;5016278;28;20026;-80
2023/05/22 09:01:15;;;;;;;17.42;15.63;;;22.40;99.90;;;;;;4991026;28;20069;-79
2023/05/22 09:03:41;;;;;;;14.27;12.82;;;22.20;99.90;;;;;;5004688;28;20506;-80
2023/05/22 09:06:09;;;;;;;9.98;8.88;;;22.30;99.90;;;;;;4991753;28;20037;-80
2023/05/22 09:08:35;;;;;;;12.98;11.60;;;22.70;99.90;;;;;;4992034;28;20396;-79
2023/05/22 09:11:01;;;;;;;11.82;10.10;;;22.70;99.90;;;;;;4992313;28;20030;-79
2023/05/22 09:13:29;;;;;;;13.05;11.75;;;22.70;99.90;;;;;;5007856;28;20059;-78
2023/05/22 09:15:59;;;;;;;10.48;9.48;;;22.60;99.90;;;;;;5005141;28;20114;-80
2023/05/22 09:18:28;;;;;;;15.15;12.57;;;23.20;99.90;;;;;;5004762;28;20017;-80
2023/05/22 09:20:56;;;;;;;14.07;12.65;;;23.10;99.90;;;;;;5003971;28;20463;-78
2023/05/22 09:23:24;;;;;;;13.50;12.10;;;23.20;99.90;;;;;;5004324;28;20026;-80
2023/05/22 09:25:54;;;;;;;15.23;13.63;;;23.30;99.90;;;;;;5002462;28;20048;-80
2023/05/22 09:28:20;;;;;;;12.82;11.52;;;23.10;99.90;;;;;;5004054;28;20429;-79
2023/05/22 09:30:53;;;;;;;12.07;10.48;;;22.90;99.90;;;;;;4990636;28;20490;-80
2023/05/22 09:33:21;;;;;;;11.95;9.57;;;23.40;99.90;;;;;;5007115;28;20084;-80
2023/05/22 09:35:47;;;;;;;10.57;9.60;;;23.90;99.90;;;;;;5004619;28;20061;-79
2023/05/22 09:38:13;;;;;;;13.15;11.75;;;24.40;99.90;;;;;;4997982;28;20026;-80
2023/05/22 09:40:40;;;;;;;15.32;13.73;;;23.90;99.90;;;;;;4989647;28;20423;-79
2023/05/22 09:43:07;;;;;;;13.98;12.57;;;23.00;99.90;;;;;;5004662;28;20060;-80
2023/05/22 09:45:37;;;;;;;12.90;11.27;;;22.60;99.90;;;;;;5005435;28;20030;-79
2023/05/22 09:48:07;;;;;;;10.50;9.45;;;22.60;99.90;;;;;;5019704;28;20075;-79
2023/05/22 09:50:33;;;;;;;9.52;8.63;;;23.20;99.90;;;;;;5004233;28;20072;-79
2023/05/22 09:53:02;;;;;;;12.05;9.90;;;24.30;99.90;;;;;;4999099;28;20037;-79
2023/05/22 09:55:28;;;;;;;9.35;8.48;;;23.80;99.90;;;;;;5002891;28;20140;-79
2023/05/22 09:57:55;;;;;;;10.82;9.80;;;23.40;99.90;;;;;;4990022;28;20112;-79
2023/05/22 10:00:22;;;;;;;10.25;9.25;;;23.90;99.90;;;;;;4991033;28;20390;-80
2023/05/22 10:03:04;;;;;;;10.85;9.75;;;23.80;99.90;;;;;;5001684;28;20475;-79
2023/05/22 10:05:31;;;;;;;10.20;9.13;;;23.20;99.90;;;;;;5015727;28;20097;-80
2023/05/22 10:08:06;;;;;;;12.73;11.43;;;23.80;99.90;;;;;;4990851;28;20040;-80
2023/05/22 10:10:34;;;;;;;12.07;10.88;;;23.50;99.90;;;;;;5005579;28;20477;-80
2023/05/22 10:13:03;;;;;;;10.50;9.40;;;23.80;99.90;;;;;;5003384;28;20034;-80
2023/05/22 10:15:30;;;;;;;13.93;12.23;;;24.50;99.90;;;;;;4989447;28;20049;-79
2023/05/22 10:17:57;;;;;;;10.73;9.63;;;23.70;99.90;;;;;;4990148;28;20103;-80
2023/05/22 10:20:28;;;;;;;10.25;8.82;;;23.40;99.90;;;;;;5007053;28;20026;-80
2023/05/22 10:22:54;;;;;;;9.18;8.27;;;23.80;99.90;;;;;;5022198;28;20475;-79
2023/05/22 10:25:24;;;;;;;10.88;9.82;;;24.30;99.90;;;;;;5006353;28;20037;-80
2023/05/22 10:27:54;;;;;;;11.02;9.93;;;24.30;99.90;;;;;;5011955;28;20053;-80
2023/05/22 10:30:25;;;;;;;8.73;7.82;;;24.10;99.90;;;;;;5015256;28;20129;-79
2023/05/22 10:33:22;;;;;;;8.15;7.32;;;24.70;99.90;;;;;;5004551;28;20026;-80
2023/05/22 10:36:03;;;;;;;8.70;7.90;;;25.20;99.90;;;;;;4987965;28;20072;-80
2023/05/22 10:38:54;;;;;;;8.15;7.35;;;24.40;99.90;;;;;;5003434;28;20053;-80
2023/05/22 10:41:21;;;;;;;10.65;9.55;;;24.30;99.90;;;;;;5000737;28;20052;-80
2023/05/22 10:43:50;;;;;;;7.15;6.50;;;24.10;99.90;;;;;;5005224;28;20078;-79
2023/05/22 10:46:17;;;;;;;8.48;7.53;;;25.00;99.90;;;;;;5002209;28;20022;-79
2023/05/22 10:48:47;;;;;;;9.70;7.82;;;25.20;99.90;;;;;;4996876;28;20026;-80
2023/05/22 10:51:21;;;;;;;9.88;8.57;;;25.10;99.90;;;;;;4989519;28;20038;-79
2023/05/22 10:54:01;;;;;;;10.23;9.20;;;24.90;99.90;;;;;;5004490;28;20057;-80
2023/05/22 10:56:34;;;;;;;11.25;10.05;;;24.70;99.90;;;;;;4985425;28;20239;-80
2023/05/22 10:59:03;;;;;;;8.18;6.50;;;24.60;99.90;;;;;;4986372;28;20091;-79
2023/05/22 11:01:29;;;;;;;8.93;7.63;;;25.30;99.90;;;;;;5001624;28;20494;-80
2023/05/22 11:04:07;;;;;;;8.27;7.40;;;25.20;99.90;;;;;;4989373;28;20489;-79
2023/05/22 11:06:42;;;;;;;7.65;6.95;;;25.10;99.90;;;;;;4988888;28;20114;-79
2023/05/22 11:09:17;;;;;;;9.93;8.93;;;25.30;99.90;;;;;;5012463;28;20030;-80
2023/05/22 11:11:44;;;;;;;11.32;10.23;;;25.00;99.90;;;;;;5004582;28;20450;-79
2023/05/22 11:14:19;;;;;;;12.52;10.30;;;24.90;99.90;;;;;;4990013;28;20117;-80
2023/05/22 11:16:44;;;;;;;9.23;8.32;;;24.90;99.90;;;;;;5023710;28;20120;-79
2023/05/22 11:19:10;;;;;;;9.20;8.32;;;25.50;99.90;;;;;;4993304;28;20470;-79
2023/05/22 11:21:46;;;;;;;7.88;7.07;;;25.60;99.90;;;;;;5007189;28;20030;-80
2023/05/22 11:24:14;;;;;;;9.90;8.93;;;25.30;99.90;;;;;;5009294;28;20367;-79
2023/05/22 11:26:41;;;;;;;8.15;7.45;;;24.50;99.90;;;;;;5009004;28;20033;-79
2023/05/22 11:29:07;;;;;;;9.20;8.40;;;24.40;99.90;;;;;;5009248;28;20030;-79
2023/05/22 11:31:35;;;;;;;8.02;6.95;;;24.10;99.90;;;;;;4991253;28;20037;-79
2023/05/22 11:34:02;;;;;;;9.23;8.45;;;24.10;99.90;;;;;;5005687;28;20378;-79
2023/05/22 11:36:28;;;;;;;9.68;8.77;;;24.50;99.90;;;;;;5006550;28;20096;-80
2023/05/22 11:39:00;;;;;;;9.45;8.55;;;24.80;99.90;;;;;;5006132;28;20022;-80
2023/05/22 11:41:30;;;;;;;8.10;7.35;;;24.70;99.90;;;;;;5007505;28;20054;-80
2023/05/22 11:43:55;;;;;;;11.35;9.80;;;25.10;99.90;;;;;;5009352;28;20060;-80
2023/05/22 11:46:21;;;;;;;12.73;9.32;;;25.10;99.90;;;;;;5016682;28;20104;-79
2023/05/22 11:48:47;;;;;;;9.18;8.35;;;24.90;99.90;;;;;;4993039;28;20065;-80
2023/05/22 11:51:13;;;;;;;8.82;7.43;;;24.80;99.90;;;;;;5010084;28;20057;-80
2023/05/22 11:53:40;;;;;;;8.90;8.00;;;25.20;99.90;;;;;;4992777;28;20508;-79
2023/05/22 11:56:06;;;;;;;9.10;8.20;;;25.00;99.90;;;;;;5005318;28;20057;-80
2023/05/22 11:58:32;;;;;;;9.13;8.15;;;25.40;99.90;;;;;;5004368;28;20174;-80
2023/05/22 12:01:02;;;;;;;7.63;6.93;;;25.40;99.90;;;;;;4991242;28;20038;-79
2023/05/22 12:03:30;;;;;;;9.35;8.45;;;25.80;99.90;;;;;;5004232;28;20077;-79
2023/05/22 12:05:56;;;;;;;10.20;9.00;;;25.70;99.90;;;;;;5008570;28;20110;-80
2023/05/22 12:08:23;;;;;;;7.22;6.60;;;25.70;99.90;;;;;;4991843;28;20036;-79
2023/05/22 12:10:50;;;;;;;6.43;5.60;;;26.40;99.90;;;;;;5006553;28;20053;-79
2023/05/22 12:13:28;;;;;;;7.57;6.80;;;26.40;99.90;;;;;;5002681;28;20037;-81
2023/05/22 12:15:59;;;;;;;8.00;7.20;;;26.10;99.90;;;;;;5005658;28;20035;-81
2023/05/22 12:18:25;;;;;;;10.15;8.32;;;26.10;99.90;;;;;;4991954;28;20030;-81
2023/05/22 12:20:53;;;;;;;7.82;7.13;;;25.60;99.90;;;;;;4988980;28;20086;-81
2023/05/22 12:23:22;;;;;;;8.13;7.32;;;25.00;99.90;;;;;;5022316;28;20062;-81
2023/05/22 12:26:13;;;;;;;8.10;7.22;;;24.70;99.90;;;;;;5005646;28;20113;-79
2023/05/22 12:28:39;;;;;;;8.25;7.53;;;24.80;99.90;;;;;;5004848;28;20129;-81
2023/05/22 12:31:04;;;;;;;8.00;7.30;;;24.70;99.90;;;;;;5002711;28;20105;-81
2023/05/22 12:33:30;;;;;;;8.18;6.20;;;24.50;99.90;;;;;;5006528;28;20045;-81
2023/05/22 12:36:00;;;;;;;7.57;6.95;;;24.70;99.90;;;;;;5016958;28;20070;-80
2023/05/22 12:38:29;;;;;;;7.65;6.97;;;24.50;99.90;;;;;;5001500;28;20030;-81